createdAt,value
2018-02-24T00:01:25.848Z,39.20
2018-02-24T00:03:54.881Z,35.53
2018-02-24T00:06:24.168Z,44.27
2018-02-24T00:08:52.489Z,38.27
2018-02-24T00:11:20.752Z,32.40
2018-02-24T00:13:49.036Z,43.47
2018-02-24T00:16:17.707Z,46.67
2018-02-24T00:18:50.592Z,24.97
2018-02-24T00:21:19.232Z,30.80
2018-02-24T00:23:48.366Z,35.60
2018-02-24T00:26:16.671Z,38.57
2018-02-24T00:28:45.188Z,32.07
2018-02-24T00:31:14.732Z,36.13
2018-02-24T00:33:43.002Z,40.30
2018-02-24T00:36:12.362Z,35.90
2018-02-24T00:38:41.401Z,24.60
2018-02-24T00:41:09.682Z,39.73
2018-02-24T00:43:37.991Z,37.73
2018-02-24T00:46:07.762Z,35.83
2018-02-24T00:48:36.034Z,39.73
2018-02-24T00:51:04.341Z,25.97
2018-02-24T00:53:33.551Z,27.50
2018-02-24T00:56:02.564Z,19.83
2018-02-24T00:58:31.639Z,38.10
2018-02-24T01:00:59.919Z,35.60
2018-02-24T01:03:28.195Z,38.47
2018-02-24T01:05:56.509Z,36.70
2018-02-24T01:08:25.616Z,34.23
2018-02-24T01:10:53.882Z,32.50
2018-02-24T01:13:22.952Z,33.20
2018-02-24T01:15:52.005Z,38.20
2018-02-24T01:18:20.274Z,46.90
2018-02-24T01:20:48.773Z,41.67
2018-02-24T01:23:17.057Z,43.23
2018-02-24T01:25:45.315Z,33.37
2018-02-24T01:28:14.232Z,33.10
2018-02-24T01:30:42.505Z,34.67
2018-02-24T01:33:11.572Z,38.23
2018-02-24T01:35:39.981Z,44.90
2018-02-24T01:38:08.255Z,23.37
2018-02-24T01:40:37.300Z,33.50
2018-02-24T01:43:05.619Z,39.00
2018-02-24T01:45:34.936Z,43.30
2018-02-24T01:48:03.219Z,40.40
2018-02-24T01:50:41.432Z,47.80
2018-02-24T01:53:09.729Z,40.00
2018-02-24T01:55:41.200Z,44.90
2018-02-24T01:58:09.620Z,33.40
2018-02-24T02:00:37.964Z,28.83
2018-02-24T02:03:06.276Z,46.93
2018-02-24T02:05:36.266Z,34.20
2018-02-24T02:08:04.908Z,41.03
2018-02-24T02:10:33.978Z,36.63
2018-02-24T02:13:02.385Z,23.20
2018-02-24T02:15:31.466Z,36.50
2018-02-24T02:17:59.811Z,45.30
2018-02-24T02:20:29.946Z,31.70
2018-02-24T02:22:58.297Z,42.40
2018-02-24T02:25:26.659Z,22.83
2018-02-24T02:27:55.474Z,51.93
2018-02-24T02:30:23.837Z,40.17
2018-02-24T02:32:53.072Z,26.63
2018-02-24T02:35:22.249Z,48.87
2018-02-24T02:37:50.535Z,42.57
2018-02-24T02:40:20.355Z,46.60
2018-02-24T02:42:50.191Z,51.57
2018-02-24T02:45:20.009Z,51.93
2018-02-24T02:47:49.061Z,58.17
2018-02-24T02:50:17.373Z,43.77
2018-02-24T02:52:46.446Z,37.37
2018-02-24T02:55:14.719Z,56.33
2018-02-24T02:57:44.742Z,44.53
2018-02-24T03:00:13.013Z,49.70
2018-02-24T03:02:41.280Z,51.50
2018-02-24T03:05:10.280Z,46.80
2018-02-24T03:07:39.023Z,47.33
2018-02-24T03:10:07.316Z,37.00
2018-02-24T03:12:35.623Z,51.40
2018-02-24T03:15:03.885Z,36.53
2018-02-24T03:17:32.904Z,36.70
2018-02-24T03:20:02.132Z,49.80
2018-02-24T03:22:31.977Z,54.17
2018-02-24T03:25:00.248Z,46.77
2018-02-24T03:27:28.873Z,49.03
2018-02-24T03:29:57.148Z,56.77
2018-02-24T03:32:25.476Z,42.37
2018-02-24T03:34:54.290Z,46.47
2018-02-24T03:37:22.565Z,53.77
2018-02-24T03:39:50.834Z,40.53
2018-02-24T03:42:19.334Z,55.27
2018-02-24T03:44:47.610Z,14.73
2018-02-24T03:47:16.245Z,48.97
2018-02-24T03:49:46.309Z,38.67
2018-02-24T03:52:14.592Z,41.83
2018-02-24T03:54:45.120Z,34.33
2018-02-24T03:57:13.601Z,52.83
2018-02-24T03:59:42.937Z,35.50
2018-02-24T04:02:11.231Z,50.40
2018-02-24T04:04:39.589Z,63.63
2018-02-24T04:07:08.760Z,40.10
2018-02-24T04:09:37.036Z,50.97
2018-02-24T04:12:05.684Z,55.93
2018-02-24T04:14:34.032Z,48.80
2018-02-24T04:17:02.323Z,49.70
2018-02-24T04:19:32.147Z,41.73
2018-02-24T04:22:00.431Z,47.90
2018-02-24T04:24:30.866Z,42.57
2018-02-24T04:26:59.478Z,45.73
2018-02-24T04:29:27.750Z,48.23
2018-02-24T04:31:56.030Z,43.97
2018-02-24T04:34:24.704Z,42.93
2018-02-24T04:36:53.160Z,35.77
2018-02-24T04:39:21.475Z,46.00
2018-02-24T04:41:50.572Z,46.57
2018-02-24T04:44:19.632Z,58.83
2018-02-24T04:46:47.909Z,42.80
2018-02-24T04:49:17.945Z,55.20
2018-02-24T04:51:46.202Z,43.67
2018-02-24T04:54:14.484Z,51.23
2018-02-24T04:56:44.247Z,44.43
2018-02-24T04:59:13.287Z,44.77
2018-02-24T05:01:47.914Z,44.83
2018-02-24T05:04:16.188Z,49.73
2018-02-24T05:06:45.199Z,46.67
2018-02-24T05:09:13.577Z,52.57
2018-02-24T05:11:41.940Z,43.47
2018-02-24T05:14:11.711Z,43.57
2018-02-24T05:16:40.830Z,46.73
2018-02-24T05:19:09.107Z,52.03
2018-02-24T05:21:37.383Z,54.40
2018-02-24T05:24:05.698Z,52.90
2018-02-24T05:26:34.974Z,45.97
2018-02-24T05:29:03.251Z,46.97
2018-02-24T05:31:31.555Z,50.63
2018-02-24T05:33:59.832Z,40.83
2018-02-24T05:36:28.107Z,44.17
2018-02-24T05:38:59.660Z,36.50
2018-02-24T05:41:27.931Z,46.67
2018-02-24T05:43:56.212Z,61.07
2018-02-24T05:46:24.514Z,59.40
2018-02-24T05:48:52.805Z,48.03
2018-02-24T05:51:22.017Z,53.07
2018-02-24T05:53:50.339Z,51.90
2018-02-24T05:56:20.167Z,49.77
2018-02-24T05:58:48.477Z,38.00
2018-02-24T06:01:16.813Z,42.80
2018-02-24T06:03:47.704Z,48.37
2018-02-24T06:06:15.969Z,44.40
2018-02-24T06:08:45.227Z,46.03
2018-02-24T06:11:14.291Z,47.23
2018-02-24T06:13:42.666Z,46.37
2018-02-24T06:16:13.319Z,43.10
2018-02-24T06:18:41.598Z,36.87
2018-02-24T06:21:10.741Z,45.67
2018-02-24T06:23:39.790Z,41.93
2018-02-24T06:26:08.046Z,57.13
2018-02-24T06:28:37.938Z,39.03
2018-02-24T06:31:06.405Z,35.30
2018-02-24T06:33:36.153Z,42.50
2018-02-24T06:36:04.413Z,45.73
2018-02-24T06:38:32.853Z,30.50
2018-02-24T06:41:01.918Z,37.60
2018-02-24T06:43:30.200Z,42.33
2018-02-24T06:45:59.694Z,37.90
2018-02-24T06:48:27.983Z,36.23
2018-02-24T06:50:56.259Z,44.80
2018-02-24T06:53:25.352Z,32.43
2018-02-24T06:55:53.628Z,40.43
2018-02-24T06:58:22.707Z,32.87
2018-02-24T07:00:51.004Z,41.43
2018-02-24T07:03:20.048Z,50.53
2018-02-24T07:05:49.082Z,51.77
2018-02-24T07:08:17.402Z,38.07
2018-02-24T07:10:45.663Z,43.23
2018-02-24T07:13:13.964Z,27.97
2018-02-24T07:15:42.384Z,48.50
2018-02-24T07:18:10.648Z,45.67
2018-02-24T07:20:38.942Z,42.47
2018-02-24T07:23:07.251Z,35.90
2018-02-24T07:25:36.319Z,34.47
2018-02-24T07:28:04.622Z,45.40
2018-02-24T07:30:36.753Z,47.03
2018-02-24T07:33:05.031Z,41.53
2018-02-24T07:35:35.574Z,36.90
2018-02-24T07:38:03.906Z,40.50
2018-02-24T07:40:32.182Z,47.97
2018-02-24T07:43:00.461Z,33.27
2018-02-24T07:45:28.774Z,32.03
2018-02-24T07:47:57.872Z,28.00
2018-02-24T07:50:26.157Z,45.00
2018-02-24T07:52:54.678Z,32.40
2018-02-24T07:55:25.531Z,36.50
2018-02-24T07:57:53.837Z,34.93
2018-02-24T08:00:22.142Z,36.80
2018-02-24T08:02:51.175Z,28.80
2018-02-24T08:05:19.494Z,43.87
2018-02-24T08:07:53.459Z,40.80
2018-02-24T08:10:21.748Z,38.97
2018-02-24T08:12:51.593Z,31.30
2018-02-24T08:15:20.262Z,34.03
2018-02-24T08:17:48.554Z,27.03
2018-02-24T08:20:21.268Z,41.03
2018-02-24T08:22:49.536Z,30.07
2018-02-24T08:25:18.544Z,19.40
2018-02-24T08:27:47.187Z,38.63
2018-02-24T08:30:15.538Z,23.70
2018-02-24T08:32:44.686Z,32.10
2018-02-24T08:35:13.155Z,32.13
2018-02-24T08:37:43.070Z,33.93
2018-02-24T08:40:12.109Z,30.03
2018-02-24T08:42:40.650Z,35.73
2018-02-24T08:45:11.002Z,24.60
2018-02-24T08:47:39.295Z,23.30
2018-02-24T08:50:07.892Z,37.37
2018-02-24T08:52:36.270Z,19.50
2018-02-24T08:55:04.650Z,29.93
2018-02-24T08:57:35.402Z,34.17
2018-02-24T09:00:03.737Z,28.40
2018-02-24T09:02:32.058Z,31.83
2018-02-24T09:05:00.373Z,25.67
2018-02-24T09:07:28.664Z,23.00
2018-02-24T09:09:57.266Z,25.37
2018-02-24T09:12:25.590Z,35.03
2018-02-24T09:14:54.673Z,33.80
2018-02-24T09:17:22.962Z,27.97
2018-02-24T09:19:52.065Z,19.67
2018-02-24T09:22:24.180Z,17.23
2018-02-24T09:24:52.458Z,23.40
2018-02-24T09:27:20.881Z,22.67
2018-02-24T09:29:49.935Z,26.97
2018-02-24T09:32:18.206Z,25.57
2018-02-24T09:34:46.774Z,36.03
2018-02-24T09:37:15.689Z,22.87
2018-02-24T09:39:43.958Z,23.70
2018-02-24T09:42:12.703Z,28.63
2018-02-24T09:44:41.742Z,18.70
2018-02-24T09:47:10.986Z,13.30
2018-02-24T09:49:39.533Z,19.90
2018-02-24T09:52:08.618Z,21.70
2018-02-24T09:54:36.908Z,27.00
2018-02-24T09:57:05.313Z,23.67
2018-02-24T09:59:34.772Z,23.67
2018-02-24T10:02:03.049Z,23.47
2018-02-24T10:04:31.551Z,28.23
2018-02-24T10:06:59.822Z,19.00
2018-02-24T10:09:28.083Z,15.40
2018-02-24T10:11:59.558Z,20.40
2018-02-24T10:14:27.826Z,21.07
2018-02-24T10:16:56.101Z,27.20
2018-02-24T10:19:24.396Z,19.90
2018-02-24T10:21:53.427Z,20.33
2018-02-24T10:24:24.365Z,20.53
2018-02-24T10:26:52.697Z,19.47
2018-02-24T10:29:21.047Z,16.50
2018-02-24T10:31:49.298Z,12.23
2018-02-24T10:34:17.585Z,13.90
2018-02-24T10:36:47.437Z,26.60
2018-02-24T10:39:15.716Z,17.03
2018-02-24T10:41:44.000Z,14.90
2018-02-24T10:44:12.276Z,16.73
2018-02-24T10:46:40.547Z,15.30
2018-02-24T10:49:15.309Z,9.57
2018-02-24T10:51:44.356Z,15.20
2018-02-24T10:54:12.614Z,16.73
2018-02-24T10:56:41.010Z,10.23
2018-02-24T10:59:09.270Z,15.10
2018-02-24T11:01:39.893Z,14.67
2018-02-24T11:04:08.271Z,14.43
2018-02-24T11:06:36.524Z,29.00
2018-02-24T11:09:04.793Z,12.80
2018-02-24T11:11:34.377Z,12.17
2018-02-24T11:14:05.411Z,11.40
2018-02-24T11:16:33.771Z,14.40
2018-02-24T11:19:02.293Z,17.63
2018-02-24T11:21:31.346Z,13.40
2018-02-24T11:23:59.609Z,19.40
2018-02-24T11:26:28.730Z,14.73
2018-02-24T11:28:57.005Z,16.80
2018-02-24T11:31:25.348Z,9.47
2018-02-24T11:33:53.982Z,9.97
2018-02-24T11:36:22.379Z,7.23
2018-02-24T11:38:51.011Z,10.13
2018-02-24T11:41:19.454Z,6.43
2018-02-24T11:43:48.466Z,9.40
2018-02-24T11:46:16.725Z,8.20
2018-02-24T11:48:45.044Z,8.80
2018-02-24T11:51:17.089Z,8.37
2018-02-24T11:53:45.342Z,9.77
2018-02-24T11:56:14.960Z,10.07
2018-02-24T11:58:43.277Z,9.13
2018-02-24T12:01:11.564Z,11.07
2018-02-24T12:03:41.767Z,8.27
2018-02-24T12:06:10.031Z,12.13
2018-02-24T12:08:38.304Z,10.63
2018-02-24T12:11:06.610Z,8.57
2018-02-24T12:13:34.869Z,7.17
2018-02-24T12:16:04.874Z,24.43
2018-02-24T12:18:33.196Z,9.50
2018-02-24T12:21:01.462Z,11.50
2018-02-24T12:23:29.735Z,13.63
2018-02-24T12:25:58.017Z,8.50
2018-02-24T12:28:27.518Z,20.57
2018-02-24T12:30:55.797Z,13.43
2018-02-24T12:33:24.174Z,8.30
2018-02-24T12:35:52.414Z,10.63
2018-02-24T12:38:20.779Z,12.10
2018-02-24T12:40:51.347Z,10.33
2018-02-24T12:43:19.591Z,9.73
2018-02-24T12:45:47.857Z,17.47
2018-02-24T12:48:16.809Z,12.03
2018-02-24T12:50:45.068Z,12.33
2018-02-24T12:53:18.759Z,8.33
2018-02-24T12:55:47.955Z,12.80
2018-02-24T12:58:16.219Z,14.03
2018-02-24T13:00:44.606Z,13.43
2018-02-24T13:03:12.885Z,13.73
2018-02-24T13:05:41.167Z,11.67
2018-02-24T13:08:09.462Z,17.63
2018-02-24T13:10:38.847Z,6.87
2018-02-24T13:13:07.142Z,12.23
2018-02-24T13:15:35.993Z,15.13
2018-02-24T13:18:07.634Z,12.73
2018-02-24T13:20:35.934Z,9.20
2018-02-24T13:23:04.230Z,12.80
2018-02-24T13:25:32.498Z,12.00
2018-02-24T13:28:02.218Z,15.00
2018-02-24T13:30:30.576Z,19.23
2018-02-24T13:32:58.892Z,23.27
2018-02-24T13:35:27.470Z,13.13
2018-02-24T13:37:55.755Z,20.27
2018-02-24T13:40:24.801Z,14.67
2018-02-24T13:42:55.242Z,16.03
2018-02-24T13:45:23.506Z,13.37
2018-02-24T13:47:51.790Z,16.97
2018-02-24T13:50:20.301Z,11.30
2018-02-24T13:52:49.343Z,19.57
2018-02-24T13:55:19.879Z,14.17
2018-02-24T13:57:48.207Z,10.43
2018-02-24T14:00:17.283Z,14.93
2018-02-24T14:02:45.579Z,16.63
2018-02-24T14:05:13.885Z,16.70
2018-02-24T14:07:44.656Z,13.63
2018-02-24T14:10:14.161Z,8.80
2018-02-24T14:12:42.645Z,25.23
2018-02-24T14:15:11.649Z,14.97
2018-02-24T14:17:40.217Z,13.47
2018-02-24T14:20:10.352Z,15.23
2018-02-24T14:22:38.624Z,18.73
2018-02-24T14:25:08.010Z,17.07
2018-02-24T14:27:38.281Z,11.80
2018-02-24T14:30:06.540Z,17.30
2018-02-24T14:32:34.914Z,16.57
2018-02-24T14:35:03.299Z,9.27
2018-02-24T14:37:31.578Z,9.60
2018-02-24T14:40:01.227Z,12.27
2018-02-24T14:42:29.620Z,10.60
2018-02-24T14:44:58.641Z,16.07
2018-02-24T14:47:26.912Z,12.30
2018-02-24T14:49:55.308Z,11.30
2018-02-24T14:52:23.590Z,13.10
2018-02-24T14:54:51.848Z,9.97
2018-02-24T14:57:21.176Z,7.40
2018-02-24T14:59:49.427Z,7.10
2018-02-24T15:02:17.711Z,10.00
2018-02-24T15:04:46.523Z,13.20
2018-02-24T15:07:15.566Z,5.87
2018-02-24T15:09:44.631Z,12.47
2018-02-24T15:12:12.938Z,10.43
2018-02-24T15:14:41.196Z,9.20
2018-02-24T15:17:09.465Z,7.90
2018-02-24T15:19:37.756Z,8.03
2018-02-24T15:22:08.298Z,9.07
2018-02-24T15:24:36.578Z,9.47
2018-02-24T15:27:04.975Z,8.53
2018-02-24T15:29:33.304Z,9.77
2018-02-24T15:32:01.672Z,10.27
2018-02-24T15:34:31.031Z,5.33
2018-02-24T15:36:59.392Z,8.93
2018-02-24T15:39:27.770Z,3.33
2018-02-24T15:41:57.961Z,9.87
2018-02-24T15:44:26.217Z,8.07
2018-02-24T15:46:54.824Z,6.17
2018-02-24T15:49:23.275Z,8.40
2018-02-24T15:51:52.395Z,9.10
2018-02-24T15:54:22.444Z,7.63
2018-02-24T15:56:51.849Z,12.90
2018-02-24T15:59:21.623Z,7.93
2018-02-24T16:01:49.872Z,9.00
2018-02-24T16:04:19.508Z,8.60
2018-02-24T16:06:48.550Z,7.83
2018-02-24T16:09:17.019Z,7.73
2018-02-24T16:11:47.718Z,9.70
2018-02-24T16:14:16.026Z,8.93
2018-02-24T16:16:44.290Z,12.80
2018-02-24T16:19:12.787Z,9.87
2018-02-24T16:21:41.180Z,7.60
2018-02-24T16:24:11.307Z,7.27
2018-02-24T16:26:39.687Z,8.93
2018-02-24T16:29:08.713Z,7.90
2018-02-24T16:31:36.972Z,6.50
2018-02-24T16:34:05.280Z,7.20
2018-02-24T16:36:34.418Z,7.30
2018-02-24T16:39:02.788Z,6.17
2018-02-24T16:41:31.849Z,9.00
2018-02-24T16:44:01.473Z,5.37
2018-02-24T16:46:29.773Z,10.87
2018-02-24T16:48:58.828Z,9.40
2018-02-24T16:51:27.109Z,5.73
2018-02-24T16:53:55.382Z,5.17
2018-02-24T16:56:23.803Z,8.83
2018-02-24T16:58:52.138Z,4.47
2018-02-24T17:01:22.764Z,7.83
2018-02-24T17:03:51.378Z,5.80
2018-02-24T17:06:19.756Z,3.73
2018-02-24T17:08:48.143Z,5.10
2018-02-24T17:11:16.452Z,10.77
2018-02-24T17:13:45.774Z,2.30
2018-02-24T17:16:14.054Z,3.20
2018-02-24T17:18:42.382Z,4.20
2018-02-24T17:21:11.434Z,3.67
2018-02-24T17:23:44.331Z,4.60
2018-02-24T17:26:27.540Z,4.37
2018-02-24T17:29:08.373Z,5.90
2018-02-24T17:31:49.464Z,4.40
2018-02-24T17:34:31.076Z,2.80
2018-02-24T17:37:03.750Z,5.07
2018-02-24T17:39:32.806Z,3.20
2018-02-24T17:42:01.097Z,3.63
2018-02-24T17:44:30.472Z,7.13
2018-02-24T17:46:58.802Z,3.40
2018-02-24T17:49:28.580Z,5.23
2018-02-24T17:52:01.672Z,7.53
2018-02-24T17:54:29.966Z,3.97
2018-02-24T17:56:58.296Z,3.07
2018-02-24T17:59:26.893Z,8.97
2018-02-24T18:01:59.571Z,8.40
2018-02-24T18:04:27.883Z,4.00
2018-02-24T18:06:56.936Z,5.97
2018-02-24T18:09:25.303Z,3.83
2018-02-24T18:11:53.698Z,9.73
2018-02-24T18:14:22.771Z,5.33
2018-02-24T18:16:51.036Z,3.67
2018-02-24T18:19:20.467Z,3.20
2018-02-24T18:21:48.752Z,4.77
2018-02-24T18:24:18.260Z,4.20
2018-02-24T18:26:47.438Z,3.60
2018-02-24T18:29:15.719Z,6.20
2018-02-24T18:31:44.027Z,8.93
2018-02-24T18:34:12.321Z,4.30
2018-02-24T18:36:43.722Z,6.73
2018-02-24T18:39:12.483Z,12.17
2018-02-24T18:41:40.806Z,5.57
2018-02-24T18:44:10.581Z,3.37
2018-02-24T18:46:38.888Z,4.20
2018-02-24T18:49:07.349Z,2.30
2018-02-24T18:51:36.851Z,4.20
2018-02-24T18:54:05.137Z,2.20
2018-02-24T18:56:34.124Z,3.03
2018-02-24T18:59:02.408Z,2.17
2018-02-24T19:01:30.704Z,6.83
2018-02-24T19:03:59.769Z,4.30
2018-02-24T19:06:28.078Z,2.70
2018-02-24T19:08:56.335Z,4.87
2018-02-24T19:11:24.814Z,3.83
2018-02-24T19:13:53.079Z,4.67
2018-02-24T19:16:24.528Z,13.97
2018-02-24T19:18:53.432Z,2.93
2018-02-24T19:21:21.730Z,4.13
2018-02-24T19:23:50.107Z,5.33
2018-02-24T19:26:18.415Z,7.13
2018-02-24T19:28:48.226Z,5.03
2018-02-24T19:31:16.498Z,4.43
2018-02-24T19:33:44.816Z,5.13
2018-02-24T19:36:13.077Z,4.97
2018-02-24T19:38:42.068Z,2.93
2018-02-24T19:41:13.356Z,3.33
2018-02-24T19:43:41.646Z,4.87
2018-02-24T19:46:09.909Z,7.80
2018-02-24T19:48:38.387Z,5.97
2018-02-24T19:51:06.657Z,2.23
2018-02-24T19:53:34.942Z,2.93
2018-02-24T19:56:03.621Z,3.60
2018-02-24T19:58:31.895Z,3.90
2018-02-24T20:01:00.184Z,4.20
2018-02-24T20:03:29.319Z,4.03
2018-02-24T20:05:58.471Z,3.73
2018-02-24T20:08:26.748Z,2.00
2018-02-24T20:10:55.119Z,5.17
2018-02-24T20:13:23.483Z,6.67
2018-02-24T20:15:51.805Z,4.10
2018-02-24T20:18:21.744Z,3.20
2018-02-24T20:20:50.081Z,3.37
2018-02-24T20:23:18.420Z,5.00
2018-02-24T20:25:47.571Z,4.40
2018-02-24T20:28:16.635Z,6.10
2018-02-24T20:30:45.865Z,4.47
2018-02-24T20:33:14.995Z,4.70
2018-02-24T20:35:43.281Z,4.43
2018-02-24T20:38:11.556Z,5.67
2018-02-24T20:40:40.377Z,3.47
2018-02-24T20:43:09.829Z,4.07
2018-02-24T20:45:38.118Z,7.13
2018-02-24T20:48:06.439Z,7.77
2018-02-24T20:50:34.722Z,5.90
2018-02-24T20:53:03.775Z,2.80
2018-02-24T20:55:36.143Z,3.47
2018-02-24T20:58:04.404Z,3.63
2018-02-24T21:00:32.678Z,1.80
2018-02-24T21:03:02.464Z,3.10
2018-02-24T21:05:31.496Z,4.43
2018-02-24T21:07:59.866Z,5.03
2018-02-24T21:10:29.083Z,8.57
2018-02-24T21:12:57.341Z,3.87
2018-02-24T21:15:25.639Z,3.83
2018-02-24T21:17:54.071Z,4.47
2018-02-24T21:20:25.176Z,15.13
2018-02-24T21:22:53.464Z,7.00
2018-02-24T21:25:22.962Z,4.23
2018-02-24T21:27:51.239Z,5.83
2018-02-24T21:30:19.499Z,5.07
2018-02-24T21:32:47.985Z,2.77
2018-02-24T21:35:16.241Z,4.57
2018-02-24T21:37:44.508Z,7.10
2018-02-24T21:40:12.785Z,5.27
2018-02-24T21:42:41.472Z,5.40
2018-02-24T21:45:11.211Z,5.60
2018-02-24T21:47:39.548Z,4.13
2018-02-24T21:50:07.814Z,7.57
2018-02-24T21:52:36.104Z,5.40
2018-02-24T21:55:04.499Z,7.77
2018-02-24T21:57:32.767Z,3.87
2018-02-24T22:00:01.069Z,5.50
2018-02-24T22:02:29.371Z,5.63
2018-02-24T22:04:57.631Z,7.00
2018-02-24T22:07:25.907Z,4.63
2018-02-24T22:09:56.440Z,6.30
2018-02-24T22:12:24.782Z,9.77
2018-02-24T22:14:53.038Z,5.70
2018-02-24T22:17:22.166Z,5.70
2018-02-24T22:19:50.448Z,8.33
2018-02-24T22:22:19.526Z,8.77
2018-02-24T22:24:48.118Z,6.00
2018-02-24T22:27:16.390Z,7.83
2018-02-24T22:29:44.655Z,14.40
2018-02-24T22:32:12.964Z,8.13
2018-02-24T22:34:42.852Z,5.60
2018-02-24T22:37:11.146Z,6.90
2018-02-24T22:39:39.439Z,9.70
2018-02-24T22:42:07.715Z,4.30
2018-02-24T22:44:38.603Z,5.23
2018-02-24T22:47:08.662Z,7.60
2018-02-24T22:49:36.928Z,3.60
2018-02-24T22:52:05.192Z,4.83
2018-02-24T22:54:34.522Z,7.17
2018-02-24T22:57:02.802Z,9.50
2018-02-24T22:59:31.968Z,4.20
2018-02-24T23:02:00.411Z,10.87
2018-02-24T23:04:29.558Z,5.63
2018-02-24T23:06:57.811Z,8.23
2018-02-24T23:09:26.220Z,5.77
2018-02-24T23:11:57.484Z,14.73
2018-02-24T23:14:25.746Z,6.90
2018-02-24T23:16:55.443Z,8.83
2018-02-24T23:19:23.733Z,8.63
2018-02-24T23:21:52.009Z,8.53
2018-02-24T23:24:20.594Z,4.10
2018-02-24T23:26:48.889Z,5.17
2018-02-24T23:29:17.147Z,7.40
2018-02-24T23:31:45.469Z,7.57
2018-02-24T23:34:13.743Z,7.80
2018-02-24T23:36:42.845Z,9.87
2018-02-24T23:39:11.174Z,9.33
2018-02-24T23:41:39.445Z,7.80
2018-02-24T23:44:07.705Z,7.03
2018-02-24T23:46:38.649Z,10.50
2018-02-24T23:49:07.668Z,4.83
2018-02-24T23:51:35.950Z,9.77
2018-02-24T23:54:05.237Z,7.50
2018-02-24T23:56:33.493Z,7.70
2018-02-24T23:59:01.744Z,10.20
